Nearby METAR Reports

 

LGTS - Thessaloniki/Mik, Greece
Distance from station: S 19km
Updated: 24/05/2022 02:20
Few Clouds
Few Clouds
 Wind from ESE
Wind: ESE 6 km/h
Temperature: 17°C
Dew Point: 15°C
Humidity: 88%
Barometer: 1010 hPa
Clouds: Few Clouds
Visibility: 10 km
Cloud details: Few Clouds 914 m
2022/05/23 23:20 LGTS 232320Z 12003KT 9999 FEW030 17/15 Q1010 NOSIG
LGKZ - Kozani (civ/Army, Greece
Distance from station: WSW 108km
Updated: 24/05/2022 02:20

 Wind from N
Wind: N 7 km/h
Temperature: 14°C
Dew Point: 13°C
Humidity: 94%
Barometer: 1013 hPa
2022/05/23 23:20 LGKZ 232320Z AUTO 01004KT //// // ////// 14/13 Q1013 RE//
 
LWSK - Skopje/Petrovac, Northen Macedonia
Distance from station: NW 183km
Updated: 24/05/2022 02:30
Clear
Clear
 Wind from SSE
Wind: SSE 2 km/h
Temperature: 16°C
Dew Point: 14°C
Humidity: 88%
Barometer: 1011 hPa
Summary: Clear
Visibility: greater than 10 km
2022/05/23 23:30 LWSK 232330Z 15001KT CAVOK 16/14 Q1011 NOSIG
LWOH - Ohrid, Northen Macedonia
Distance from station: WNW 197km
Updated: 23/05/2022 22:00
NOT Current
Few Clouds
Few Clouds
 Wind from E
Wind: E 6 km/h
Temperature: 20°C
Dew Point: 14°C
Humidity: 69%
Barometer: 1013 hPa
Clouds: Few Clouds
Visibility: 10 km
Cloud details: Few Clouds 1311 m
2022/05/23 19:00 LWOH 231900Z 09003KT 9999 FEW043TCU 20/14 Q1013